»·PEaware :: N324DP KAVQ-KBXK

N324DP :: KAVQ-KBXK

FLIGHT INFORMATION

Flight Status: Arrived
Operator: Privately registered:
United States
More flights under this callsign
Pilot: Douglas P. (31154)
Aircraft: CIRRUS SR-22
(SR22)
More flights by this aircraft type
Origin: KAVQ Marana Northwest Regl
United States
Destination: KBXK Buckeye Mun
United States
More flights between these airports :: More routes between these airports
Route: DIRECT
File this flight plan on PilotEdge
Remarks:
Altitude:
(Current/Filed)
8,500ft
Speed:
(Current/Filed)
150kts
Departed: 31-Oct-20 02:07 PM
Arrived: 31-Oct-20 02:50 PM
Distance/Time
Traveled:
96nm/0:43
Distance/Time
To Go:
Arrived

Flight Plot

Page will automatically refresh every two minutes.

Flight plan parsing failed; only flown route is shown


Map Options




Map Legend


Flown Route
Filed Route
Departure Airport
Arrival Airport
Navaid (VOR, NDB)
Fix

Horizontal Profiles

Position Reports

Time Latitude Longitude Heading Altitude Ground
Speed
31-Oct-20 14:02 32.405800 -111.215513 280 2028ft 0kts
31-Oct-20 14:03 32.405800 -111.215513 280 2028ft 0kts
31-Oct-20 14:04 32.405995 -111.215773 316 2028ft 4kts
31-Oct-20 14:04 32.404651 -111.212981 138 2032ft 16kts
31-Oct-20 14:06 32.403831 -111.211074 43 2034ft 10kts
31-Oct-20 14:06 32.412831 -111.220214 317 2185ft 92kts
31-Oct-20 14:08 32.432503 -111.247422 316 3151ft 93kts
31-Oct-20 14:08 32.447826 -111.266106 312 3693ft 108kts
31-Oct-20 14:09 32.468142 -111.296129 306 4792ft 122kts
31-Oct-20 14:10 32.489549 -111.328553 303 5885ft 128kts
31-Oct-20 14:11 32.510335 -111.364157 305 6887ft 132kts
31-Oct-20 14:12 32.533963 -111.397939 310 7849ft 132kts
31-Oct-20 14:13 32.559336 -111.431813 308 8523ft 149kts
31-Oct-20 14:14 32.588336 -111.470608 314 8499ft 158kts
31-Oct-20 14:15 32.619591 -111.506675 308 8517ft 156kts
31-Oct-20 14:16 32.639309 -111.548833 311 8492ft 139kts
31-Oct-20 14:17 32.665546 -111.584654 307 8521ft 151kts
31-Oct-20 14:18 32.693010 -111.623817 308 8519ft 155kts
31-Oct-20 14:19 32.720689 -111.663542 308 8514ft 156kts
31-Oct-20 14:20 32.748373 -111.703365 308 8514ft 156kts
31-Oct-20 14:21 32.776063 -111.743221 308 8513ft 156kts
31-Oct-20 14:22 32.803715 -111.783065 308 8513ft 156kts
31-Oct-20 14:23 32.831359 -111.822939 308 8513ft 156kts
31-Oct-20 14:24 32.858966 -111.862809 308 8514ft 156kts
31-Oct-20 14:25 32.886649 -111.902824 309 8514ft 156kts
31-Oct-20 14:26 32.914322 -111.942886 308 8513ft 156kts
31-Oct-20 14:27 32.941923 -111.982873 308 8512ft 156kts
31-Oct-20 14:28 32.969521 -112.022903 308 8515ft 156kts
31-Oct-20 14:29 32.997204 -112.063091 308 8515ft 156kts
31-Oct-20 14:30 33.025038 -112.103527 308 8196ft 156kts
31-Oct-20 14:31 33.052321 -112.143245 308 7697ft 154kts
31-Oct-20 14:32 33.079464 -112.182788 308 7196ft 152kts
31-Oct-20 14:33 33.106047 -112.221558 308 6699ft 150kts
31-Oct-20 14:34 33.133183 -112.261155 309 6539ft 156kts
31-Oct-20 14:35 33.160639 -112.301287 308 6528ft 156kts
31-Oct-20 14:36 33.188038 -112.341370 308 6529ft 155kts
31-Oct-20 14:37 33.215339 -112.381357 308 6528ft 155kts
31-Oct-20 14:38 33.243949 -112.420573 310 5396ft 157kts
31-Oct-20 14:39 33.269781 -112.457021 307 4638ft 149kts
31-Oct-20 14:40 33.292975 -112.496128 295 4036ft 145kts
31-Oct-20 14:41 33.309333 -112.541518 299 3175ft 150kts
31-Oct-20 14:42 33.328970 -112.583125 295 2704ft 139kts
31-Oct-20 14:43 33.344426 -112.626488 308 2689ft 142kts
31-Oct-20 14:44 33.371608 -112.665309 316 2417ft 154kts
31-Oct-20 14:45 33.391765 -112.707063 334 2018ft 141kts
31-Oct-20 14:46 33.430039 -112.712586 347 1946ft 129kts
31-Oct-20 14:47 33.452488 -112.702872 71 1703ft 100kts
31-Oct-20 14:48 33.437988 -112.685624 179 1173ft 84kts
31-Oct-20 14:49 33.423024 -112.686203 183 1028ft 33kts
31-Oct-20 14:50 33.420458 -112.683775 178 1023ft 6kts
31-Oct-20 14:51 33.420415 -112.684028 267 1023ft 0kts

Navigation Log

Ident Type
Flight plan parsing failed, navigation log unavailable